createdAt,value
2019-03-12T00:00:07.175Z,92.407227
2019-03-12T00:00:18.964Z,92.510986
2019-03-12T00:00:30.744Z,92.510986
2019-03-12T00:00:42.538Z,92.510986
2019-03-12T00:00:54.337Z,92.510986
2019-03-12T00:01:06.102Z,92.614746
2019-03-12T00:01:17.864Z,92.614746
2019-03-12T00:01:29.628Z,92.614746
2019-03-12T00:01:41.448Z,92.718506
2019-03-12T00:01:53.278Z,92.614746
2019-03-12T00:02:05.085Z,92.614746
2019-03-12T00:02:16.864Z,92.657471
2019-03-12T00:02:28.687Z,92.657471
2019-03-12T00:02:40.497Z,92.657471
2019-03-12T00:02:52.279Z,92.553711
2019-03-12T00:03:04.053Z,92.449951
2019-03-12T00:03:15.863Z,92.346191
2019-03-12T00:03:27.658Z,92.346191
2019-03-12T00:03:39.443Z,92.346191
2019-03-12T00:03:51.270Z,92.346191
2019-03-12T00:04:03.053Z,92.242432
2019-03-12T00:04:14.853Z,92.242432
2019-03-12T00:04:26.630Z,92.242432
2019-03-12T00:04:38.432Z,92.346191
2019-03-12T00:04:50.273Z,92.388916
2019-03-12T00:05:02.078Z,92.492676
2019-03-12T00:05:13.845Z,92.596436
2019-03-12T00:05:25.626Z,92.700195
2019-03-12T00:05:37.391Z,92.700195
2019-03-12T00:05:49.188Z,92.803955
2019-03-12T00:06:00.976Z,92.803955
2019-03-12T00:06:12.751Z,92.803955
2019-03-12T00:06:24.524Z,92.803955
2019-03-12T00:06:36.298Z,92.700195
2019-03-12T00:06:48.192Z,92.700195
2019-03-12T00:06:59.960Z,92.700195
2019-03-12T00:07:11.756Z,92.84668
2019-03-12T00:07:23.563Z,92.950439
2019-03-12T00:07:35.333Z,93.054199
2019-03-12T00:07:47.110Z,93.157959
2019-03-12T00:07:58.920Z,93.157959
2019-03-12T00:08:10.711Z,93.267822
2019-03-12T00:08:22.521Z,93.371582
2019-03-12T00:08:34.293Z,93.475342
2019-03-12T00:08:46.104Z,93.579102
2019-03-12T00:08:57.891Z,93.682861
2019-03-12T00:09:09.683Z,93.682861
2019-03-12T00:09:21.486Z,93.786621
2019-03-12T00:09:33.238Z,93.786621
2019-03-12T00:09:45.026Z,93.890381
2019-03-12T00:09:56.775Z,93.890381
2019-03-12T00:10:08.538Z,93.994141
2019-03-12T00:10:20.350Z,93.994141
2019-03-12T00:10:32.107Z,93.994141
2019-03-12T00:10:43.884Z,93.994141
2019-03-12T00:10:55.682Z,94.0979
2019-03-12T00:11:07.444Z,94.0979
2019-03-12T00:11:19.209Z,94.20166
2019-03-12T00:11:31.990Z,94.30542
2019-03-12T00:11:43.747Z,94.348145
2019-03-12T00:11:55.689Z,94.348145
2019-03-12T00:12:07.479Z,94.451904
2019-03-12T00:12:19.274Z,94.555664
2019-03-12T00:12:31.040Z,94.659424
2019-03-12T00:12:42.814Z,94.763184
2019-03-12T00:12:54.619Z,94.866943
2019-03-12T00:13:06.423Z,94.976807
2019-03-12T00:13:18.243Z,95.080566
2019-03-12T00:13:30.025Z,95.184326
2019-03-12T00:13:41.805Z,95.184326
2019-03-12T00:13:53.569Z,95.288086
2019-03-12T00:14:05.378Z,95.391846
2019-03-12T00:14:17.159Z,95.495605
2019-03-12T00:14:28.945Z,95.599365
2019-03-12T00:14:40.746Z,95.806885
2019-03-12T00:14:52.543Z,96.014404
2019-03-12T00:15:04.350Z,96.118164
2019-03-12T00:15:16.138Z,96.221924
2019-03-12T00:15:27.945Z,96.325684
2019-03-12T00:15:39.737Z,96.325684
2019-03-12T00:15:51.506Z,96.325684
2019-03-12T00:16:03.314Z,96.221924
2019-03-12T00:16:15.191Z,96.118164
2019-03-12T00:16:26.893Z,96.118164
2019-03-12T00:16:38.688Z,96.014404
2019-03-12T00:16:50.496Z,96.014404
2019-03-12T00:17:02.316Z,96.014404
2019-03-12T00:17:14.096Z,96.014404
2019-03-12T00:17:25.890Z,96.014404
2019-03-12T00:17:37.680Z,96.118164
2019-03-12T00:17:49.482Z,96.118164
2019-03-12T00:18:01.296Z,96.118164
2019-03-12T00:18:13.055Z,96.221924
2019-03-12T00:18:28.113Z,96.325684
2019-03-12T00:18:36.667Z,96.533203
2019-03-12T00:18:48.456Z,96.643066
2019-03-12T00:19:00.237Z,96.850586
2019-03-12T00:19:12.031Z,96.954346
2019-03-12T00:19:23.820Z,96.954346
2019-03-12T00:19:35.582Z,97.058105
2019-03-12T00:19:47.354Z,97.161865
2019-03-12T00:19:59.258Z,97.161865
2019-03-12T00:20:11.154Z,97.161865
2019-03-12T00:20:22.986Z,97.161865
2019-03-12T00:20:34.767Z,97.161865
2019-03-12T00:20:46.618Z,97.265625
2019-03-12T00:20:58.398Z,97.265625
2019-03-12T00:21:10.213Z,97.369385
2019-03-12T00:21:22.029Z,97.369385
2019-03-12T00:21:33.811Z,97.369385
2019-03-12T00:21:45.639Z,97.369385
2019-03-12T00:21:57.536Z,97.265625
2019-03-12T00:22:09.344Z,97.265625
2019-03-12T00:22:21.101Z,97.265625
2019-03-12T00:22:32.959Z,97.161865
2019-03-12T00:22:44.827Z,97.161865
2019-03-12T00:22:56.643Z,97.161865
2019-03-12T00:23:08.413Z,97.161865
2019-03-12T00:23:20.272Z,97.161865
2019-03-12T00:23:32.125Z,97.161865
2019-03-12T00:23:43.943Z,97.161865
2019-03-12T00:23:55.770Z,97.161865
2019-03-12T00:24:07.609Z,97.161865
2019-03-12T00:24:19.435Z,97.058105
2019-03-12T00:24:32.216Z,97.058105
2019-03-12T00:24:44.023Z,97.161865
2019-03-12T00:24:55.884Z,97.161865
2019-03-12T00:25:07.702Z,97.265625
2019-03-12T00:25:19.525Z,97.265625
2019-03-12T00:25:31.328Z,97.265625
2019-03-12T00:25:43.141Z,97.369385
2019-03-12T00:25:54.968Z,97.369385
2019-03-12T00:26:06.806Z,97.473145
2019-03-12T00:26:18.591Z,97.473145
2019-03-12T00:26:30.385Z,97.473145
2019-03-12T00:26:42.238Z,97.473145
2019-03-12T00:26:54.034Z,97.473145
2019-03-12T00:27:05.893Z,97.576904
2019-03-12T00:27:17.692Z,97.576904
2019-03-12T00:27:29.529Z,97.576904
2019-03-12T00:27:41.311Z,97.680664
2019-03-12T00:27:53.133Z,97.680664
2019-03-12T00:28:04.935Z,97.784424
2019-03-12T00:28:16.877Z,97.888184
2019-03-12T00:28:28.737Z,97.888184
2019-03-12T00:28:40.577Z,97.888184
2019-03-12T00:28:52.398Z,97.888184
2019-03-12T00:29:04.350Z,97.888184
2019-03-12T00:29:16.151Z,97.991943
2019-03-12T00:29:27.934Z,97.991943
2019-03-12T00:29:39.756Z,97.888184
2019-03-12T00:29:51.571Z,97.888184
2019-03-12T00:30:03.368Z,97.845459
2019-03-12T00:30:15.191Z,97.888184
2019-03-12T00:30:27.006Z,97.888184
2019-03-12T00:30:38.843Z,97.784424
2019-03-12T00:30:50.615Z,97.784424
2019-03-12T00:31:02.423Z,97.784424
2019-03-12T00:31:14.268Z,97.784424
2019-03-12T00:31:26.074Z,97.845459
2019-03-12T00:31:37.874Z,97.845459
2019-03-12T00:31:49.684Z,97.949219
2019-03-12T00:32:01.519Z,97.949219
2019-03-12T00:32:13.372Z,97.949219
2019-03-12T00:32:25.172Z,97.949219
2019-03-12T00:32:37.048Z,98.052979
2019-03-12T00:32:48.861Z,98.052979
2019-03-12T00:33:00.690Z,98.052979
2019-03-12T00:33:12.569Z,98.052979
2019-03-12T00:33:24.376Z,98.156738
2019-03-12T00:33:36.179Z,98.156738
2019-03-12T00:33:47.977Z,98.260498
2019-03-12T00:33:59.802Z,98.156738
2019-03-12T00:34:11.633Z,98.156738
2019-03-12T00:34:23.450Z,98.052979
2019-03-12T00:34:35.234Z,98.052979
2019-03-12T00:34:47.039Z,98.052979
2019-03-12T00:34:58.816Z,98.052979
2019-03-12T00:35:10.608Z,98.052979
2019-03-12T00:35:22.412Z,98.052979
2019-03-12T00:35:34.283Z,98.052979
2019-03-12T00:35:46.125Z,97.949219
2019-03-12T00:35:57.912Z,97.949219
2019-03-12T00:36:09.758Z,97.949219
2019-03-12T00:36:21.617Z,97.949219
2019-03-12T00:36:33.435Z,97.845459
2019-03-12T00:36:45.265Z,97.741699
2019-03-12T00:36:57.068Z,97.741699
2019-03-12T00:37:08.839Z,97.741699
2019-03-12T00:37:20.648Z,97.637939
2019-03-12T00:37:32.501Z,97.637939
2019-03-12T00:37:44.321Z,97.637939
2019-03-12T00:37:56.117Z,97.637939
2019-03-12T00:38:07.946Z,97.637939
2019-03-12T00:38:19.777Z,97.741699
2019-03-12T00:38:31.589Z,97.741699
2019-03-12T00:38:43.423Z,97.741699
2019-03-12T00:38:55.215Z,97.741699
2019-03-12T00:39:07.019Z,97.845459
2019-03-12T00:39:18.831Z,97.845459
2019-03-12T00:39:30.694Z,97.845459
2019-03-12T00:39:42.515Z,97.845459
2019-03-12T00:39:54.316Z,97.845459
2019-03-12T00:40:06.121Z,97.845459
2019-03-12T00:40:17.892Z,97.949219
2019-03-12T00:40:29.852Z,97.949219
2019-03-12T00:40:41.697Z,98.052979
2019-03-12T00:40:53.514Z,98.052979
2019-03-12T00:41:05.351Z,98.052979
2019-03-12T00:41:19.919Z,98.114014
2019-03-12T00:41:28.966Z,98.217773
2019-03-12T00:41:40.791Z,98.321533
2019-03-12T00:41:52.587Z,98.321533
2019-03-12T00:42:04.407Z,98.425293
2019-03-12T00:42:16.207Z,98.425293
2019-03-12T00:42:28.026Z,98.425293
2019-03-12T00:42:39.820Z,98.425293
2019-03-12T00:42:51.664Z,98.321533
2019-03-12T00:43:03.506Z,98.217773
2019-03-12T00:43:15.279Z,98.217773
2019-03-12T00:43:27.076Z,98.114014
2019-03-12T00:43:38.936Z,98.010254
2019-03-12T00:43:50.777Z,97.961426
2019-03-12T00:44:02.651Z,97.961426
2019-03-12T00:44:14.460Z,97.857666
2019-03-12T00:44:26.285Z,97.857666
2019-03-12T00:44:38.121Z,97.753906
2019-03-12T00:44:49.940Z,97.753906
2019-03-12T00:45:01.804Z,97.753906
2019-03-12T00:45:13.614Z,97.650146
2019-03-12T00:45:25.468Z,97.546387
2019-03-12T00:45:37.436Z,97.546387
2019-03-12T00:45:49.281Z,97.442627
2019-03-12T00:46:01.118Z,97.442627
2019-03-12T00:46:12.982Z,97.338867
2019-03-12T00:46:27.045Z,97.338867
2019-03-12T00:46:36.616Z,97.338867
2019-03-12T00:46:48.441Z,97.338867
2019-03-12T00:47:06.662Z,97.338867
2019-03-12T00:47:18.495Z,97.235107
2019-03-12T00:47:30.304Z,97.235107
2019-03-12T00:47:42.115Z,97.235107
2019-03-12T00:47:53.928Z,97.131348
2019-03-12T00:48:05.723Z,97.131348
2019-03-12T00:48:17.663Z,97.131348
2019-03-12T00:48:29.505Z,97.131348
2019-03-12T00:48:41.394Z,97.027588
2019-03-12T00:48:53.153Z,97.027588
2019-03-12T00:49:05.007Z,97.027588
2019-03-12T00:49:16.832Z,97.027588
2019-03-12T00:49:28.683Z,97.131348
2019-03-12T00:49:40.478Z,97.131348
2019-03-12T00:49:52.290Z,97.131348
2019-03-12T00:50:04.103Z,97.131348
2019-03-12T00:50:15.924Z,97.131348
2019-03-12T00:50:27.777Z,97.131348
2019-03-12T00:50:39.592Z,97.235107
2019-03-12T00:50:51.424Z,97.235107
2019-03-12T00:51:03.274Z,97.235107
2019-03-12T00:51:15.139Z,97.235107
2019-03-12T00:51:26.985Z,97.131348
2019-03-12T00:51:38.808Z,97.131348
2019-03-12T00:51:50.628Z,97.235107
2019-03-12T00:52:02.463Z,97.235107
2019-03-12T00:52:15.283Z,97.235107
2019-03-12T00:52:27.170Z,97.131348
2019-03-12T00:52:39.004Z,97.131348
2019-03-12T00:52:50.848Z,97.235107
2019-03-12T00:53:02.636Z,97.235107
2019-03-12T00:53:14.505Z,97.235107
2019-03-12T00:53:26.334Z,97.131348
2019-03-12T00:53:38.161Z,97.131348
2019-03-12T00:53:49.934Z,97.131348
2019-03-12T00:54:01.820Z,97.131348
2019-03-12T00:54:13.704Z,97.131348
2019-03-12T00:54:25.541Z,97.027588
2019-03-12T00:54:37.324Z,97.027588
2019-03-12T00:54:49.125Z,97.027588
2019-03-12T00:55:00.944Z,97.027588
2019-03-12T00:55:12.745Z,97.027588
2019-03-12T00:55:24.611Z,97.027588
2019-03-12T00:55:36.504Z,97.027588
2019-03-12T00:55:48.333Z,97.027588
2019-03-12T00:56:00.147Z,96.984863
2019-03-12T00:56:11.974Z,96.984863
2019-03-12T00:56:23.846Z,96.984863
2019-03-12T00:56:35.663Z,96.984863
2019-03-12T00:56:47.497Z,96.984863
2019-03-12T00:56:59.352Z,96.881104
2019-03-12T00:57:11.173Z,96.881104
2019-03-12T00:57:22.942Z,96.777344
2019-03-12T00:57:34.792Z,96.881104
2019-03-12T00:57:46.628Z,96.881104
2019-03-12T00:57:58.441Z,96.881104
2019-03-12T00:58:10.221Z,96.777344
2019-03-12T00:58:22.074Z,96.777344
2019-03-12T00:58:34.047Z,96.673584
2019-03-12T00:58:45.795Z,96.777344
2019-03-12T00:58:57.628Z,96.820068
2019-03-12T00:59:09.509Z,96.777344
2019-03-12T00:59:21.261Z,96.820068
2019-03-12T00:59:33.114Z,96.716309
2019-03-12T00:59:44.887Z,96.716309
2019-03-12T00:59:57.698Z,96.716309
2019-03-12T01:00:09.551Z,96.716309
2019-03-12T01:00:21.412Z,96.820068
2019-03-12T01:00:33.240Z,96.820068
2019-03-12T01:00:45.112Z,96.923828
2019-03-12T01:00:56.929Z,96.923828
2019-03-12T01:01:08.758Z,96.923828
2019-03-12T01:01:20.596Z,96.923828
2019-03-12T01:01:32.443Z,96.923828
2019-03-12T01:01:44.241Z,96.923828
2019-03-12T01:01:56.044Z,96.923828
2019-03-12T01:02:07.920Z,96.820068
2019-03-12T01:02:19.759Z,96.820068
2019-03-12T01:02:31.589Z,96.820068
2019-03-12T01:02:43.452Z,96.820068
2019-03-12T01:02:55.245Z,96.820068
2019-03-12T01:03:08.098Z,96.820068
2019-03-12T01:03:19.924Z,96.820068
2019-03-12T01:03:31.839Z,96.820068
2019-03-12T01:03:43.674Z,96.820068
2019-03-12T01:03:55.542Z,96.820068
2019-03-12T01:04:07.340Z,96.923828
2019-03-12T01:04:19.158Z,96.923828
2019-03-12T01:04:30.980Z,96.923828
2019-03-12T01:04:42.786Z,96.923828
2019-03-12T01:04:54.603Z,97.027588
2019-03-12T01:05:06.424Z,97.027588
2019-03-12T01:05:18.314Z,97.027588
2019-03-12T01:05:30.124Z,97.027588
2019-03-12T01:05:41.896Z,97.027588
2019-03-12T01:05:53.725Z,97.027588
2019-03-12T01:06:05.486Z,97.027588
2019-03-12T01:06:17.243Z,97.131348
2019-03-12T01:06:29.043Z,97.131348
2019-03-12T01:06:40.862Z,97.131348
2019-03-12T01:06:53.691Z,97.131348
2019-03-12T01:07:05.485Z,97.131348
2019-03-12T01:07:17.264Z,97.131348
2019-03-12T01:07:29.052Z,97.235107
2019-03-12T01:07:40.894Z,97.235107
2019-03-12T01:07:52.756Z,97.131348
2019-03-12T01:08:04.584Z,97.131348
2019-03-12T01:08:16.409Z,97.027588
2019-03-12T01:08:28.250Z,97.027588
2019-03-12T01:08:40.041Z,97.027588
2019-03-12T01:08:51.895Z,97.027588
2019-03-12T01:09:03.657Z,97.027588
2019-03-12T01:09:15.487Z,97.027588
2019-03-12T01:09:27.310Z,96.923828
2019-03-12T01:09:39.133Z,96.923828
2019-03-12T01:09:50.972Z,96.923828
2019-03-12T01:10:02.750Z,96.923828
2019-03-12T01:10:14.572Z,96.820068
2019-03-12T01:10:26.385Z,96.923828
2019-03-12T01:10:38.237Z,96.923828
2019-03-12T01:10:50.061Z,96.923828
2019-03-12T01:11:01.876Z,96.923828
2019-03-12T01:11:13.714Z,96.923828
2019-03-12T01:11:25.423Z,96.923828
2019-03-12T01:11:37.253Z,96.923828
2019-03-12T01:11:49.043Z,96.923828
2019-03-12T01:12:00.861Z,96.820068
2019-03-12T01:12:12.683Z,96.820068
2019-03-12T01:12:24.580Z,96.820068
2019-03-12T01:12:36.431Z,96.820068
2019-03-12T01:12:48.232Z,96.716309
2019-03-12T01:13:00.038Z,96.716309
2019-03-12T01:13:11.827Z,96.716309
2019-03-12T01:13:23.646Z,96.716309
2019-03-12T01:13:35.452Z,96.716309
2019-03-12T01:13:47.299Z,96.716309
2019-03-12T01:13:59.102Z,96.716309
2019-03-12T01:14:10.886Z,96.716309
2019-03-12T01:14:22.660Z,96.716309
2019-03-12T01:14:34.449Z,96.612549
2019-03-12T01:14:46.273Z,96.612549
2019-03-12T01:14:58.058Z,96.716309
2019-03-12T01:15:09.891Z,96.716309
2019-03-12T01:15:21.724Z,96.716309
2019-03-12T01:15:33.544Z,96.716309
2019-03-12T01:15:45.422Z,96.716309
2019-03-12T01:15:57.195Z,96.716309
2019-03-12T01:16:09.005Z,96.716309
2019-03-12T01:16:20.807Z,96.612549
2019-03-12T01:16:32.598Z,96.612549
2019-03-12T01:16:44.391Z,96.508789
2019-03-12T01:16:56.205Z,96.508789
2019-03-12T01:17:08.016Z,96.612549
2019-03-12T01:17:19.965Z,96.612549
2019-03-12T01:17:31.735Z,96.612549
2019-03-12T01:17:43.538Z,96.612549
2019-03-12T01:17:55.322Z,96.612549
2019-03-12T01:18:07.141Z,96.612549
2019-03-12T01:18:18.936Z,96.612549
2019-03-12T01:18:30.769Z,96.612549
2019-03-12T01:18:42.562Z,96.612549
2019-03-12T01:18:54.337Z,96.508789
2019-03-12T01:19:06.137Z,96.508789
2019-03-12T01:19:17.958Z,96.508789
2019-03-12T01:19:29.758Z,96.508789
2019-03-12T01:19:41.544Z,96.612549
2019-03-12T01:19:53.327Z,96.508789
2019-03-12T01:20:05.164Z,96.508789
2019-03-12T01:20:16.974Z,96.508789
2019-03-12T01:20:28.805Z,96.508789
2019-03-12T01:20:40.603Z,96.508789
2019-03-12T01:20:52.403Z,96.508789
2019-03-12T01:21:04.229Z,96.508789
2019-03-12T01:21:17.017Z,96.508789
2019-03-12T01:21:28.828Z,96.612549
2019-03-12T01:21:40.622Z,96.612549
2019-03-12T01:21:52.444Z,96.612549
2019-03-12T01:22:04.219Z,96.612549
2019-03-12T01:22:16.007Z,96.612549
2019-03-12T01:22:27.875Z,96.612549
2019-03-12T01:22:39.708Z,96.612549
2019-03-12T01:22:51.533Z,96.612549
2019-03-12T01:23:03.357Z,96.612549
2019-03-12T01:23:15.161Z,96.716309
2019-03-12T01:23:27.033Z,96.716309
2019-03-12T01:23:38.831Z,96.716309
2019-03-12T01:23:50.636Z,96.716309
2019-03-12T01:24:02.442Z,96.716309
2019-03-12T01:24:14.245Z,96.612549
2019-03-12T01:24:26.087Z,96.612549
2019-03-12T01:24:37.871Z,96.612549
2019-03-12T01:24:49.712Z,96.612549
2019-03-12T01:25:01.501Z,96.612549
2019-03-12T01:25:13.307Z,96.716309
2019-03-12T01:25:25.077Z,96.716309
2019-03-12T01:25:36.983Z,96.759033
2019-03-12T01:25:48.740Z,96.759033
2019-03-12T01:26:00.607Z,96.862793
2019-03-12T01:26:12.380Z,96.862793
2019-03-12T01:26:25.216Z,96.862793
2019-03-12T01:26:37.010Z,96.862793
2019-03-12T01:26:48.879Z,96.966553
2019-03-12T01:27:00.673Z,96.966553
2019-03-12T01:27:12.507Z,96.966553
2019-03-12T01:27:24.402Z,96.966553
2019-03-12T01:27:36.228Z,96.966553
2019-03-12T01:27:48.011Z,96.966553
2019-03-12T01:27:59.823Z,96.966553
2019-03-12T01:28:11.630Z,96.966553
2019-03-12T01:28:23.506Z,97.070312
2019-03-12T01:28:35.284Z,97.070312
2019-03-12T01:28:47.066Z,97.070312
2019-03-12T01:28:58.851Z,97.070312
2019-03-12T01:29:10.673Z,97.070312
2019-03-12T01:29:22.489Z,97.174072
2019-03-12T01:29:34.288Z,97.174072
2019-03-12T01:29:46.079Z,97.174072
2019-03-12T01:29:58.752Z,97.131348
2019-03-12T01:30:10.550Z,97.131348
2019-03-12T01:30:22.346Z,97.131348
2019-03-12T01:30:34.142Z,97.131348
2019-03-12T01:30:45.933Z,97.131348
2019-03-12T01:30:57.718Z,97.027588
2019-03-12T01:31:09.508Z,97.027588
2019-03-12T01:31:21.296Z,97.027588
2019-03-12T01:31:33.080Z,97.027588
2019-03-12T01:31:44.856Z,96.923828
2019-03-12T01:31:56.633Z,96.923828
2019-03-12T01:32:08.398Z,96.923828
2019-03-12T01:32:20.190Z,96.820068
2019-03-12T01:32:31.972Z,96.820068
2019-03-12T01:32:43.741Z,96.820068
2019-03-12T01:32:55.535Z,96.820068
2019-03-12T01:33:07.346Z,96.820068
2019-03-12T01:33:19.147Z,96.820068
2019-03-12T01:33:30.940Z,96.820068
2019-03-12T01:33:42.715Z,96.820068
2019-03-12T01:33:54.491Z,96.820068
2019-03-12T01:34:06.273Z,96.820068
2019-03-12T01:34:18.082Z,96.820068
2019-03-12T01:34:29.842Z,96.716309
2019-03-12T01:34:41.646Z,96.716309
2019-03-12T01:34:53.415Z,96.612549
2019-03-12T01:35:05.220Z,96.612549
2019-03-12T01:35:16.996Z,96.508789
2019-03-12T01:35:28.761Z,96.405029
2019-03-12T01:35:40.532Z,96.405029
2019-03-12T01:35:52.297Z,96.30127
2019-03-12T01:36:04.097Z,96.30127
2019-03-12T01:36:15.928Z,96.30127
2019-03-12T01:36:27.693Z,96.30127
2019-03-12T01:36:39.481Z,96.30127
2019-03-12T01:36:51.263Z,96.30127
2019-03-12T01:37:03.048Z,96.30127
2019-03-12T01:37:14.875Z,96.30127
2019-03-12T01:37:26.670Z,96.30127
2019-03-12T01:37:38.584Z,96.19751
2019-03-12T01:37:50.401Z,96.19751
2019-03-12T01:38:02.228Z,96.09375
2019-03-12T01:38:14.034Z,96.09375
2019-03-12T01:38:25.739Z,96.09375
2019-03-12T01:38:37.514Z,96.19751
2019-03-12T01:38:49.308Z,96.19751
2019-03-12T01:39:01.089Z,96.19751
2019-03-12T01:39:12.905Z,96.30127
2019-03-12T01:39:24.699Z,96.30127
2019-03-12T01:39:36.489Z,96.405029
2019-03-12T01:39:48.282Z,96.405029
2019-03-12T01:40:00.122Z,96.405029
2019-03-12T01:40:11.886Z,96.405029
2019-03-12T01:40:23.664Z,96.405029
2019-03-12T01:40:35.445Z,96.405029
2019-03-12T01:40:47.224Z,96.30127
2019-03-12T01:40:59.013Z,96.30127
2019-03-12T01:41:10.788Z,96.30127
2019-03-12T01:41:22.586Z,96.30127
2019-03-12T01:41:34.358Z,96.30127
2019-03-12T01:41:46.138Z,96.30127
2019-03-12T01:41:57.917Z,96.30127
2019-03-12T01:42:09.715Z,96.405029
2019-03-12T01:42:21.486Z,96.405029
2019-03-12T01:42:33.282Z,96.405029
2019-03-12T01:42:45.088Z,96.405029
2019-03-12T01:42:56.884Z,96.508789
2019-03-12T01:43:08.694Z,96.508789
2019-03-12T01:43:20.461Z,96.508789
2019-03-12T01:43:32.242Z,96.508789
2019-03-12T01:43:44.034Z,96.508789
2019-03-12T01:43:55.825Z,96.508789
2019-03-12T01:44:07.593Z,96.508789
2019-03-12T01:44:19.373Z,96.508789
2019-03-12T01:44:31.175Z,96.508789
2019-03-12T01:44:42.943Z,96.508789
2019-03-12T01:44:54.761Z,96.508789
2019-03-12T01:45:06.545Z,96.508789
2019-03-12T01:45:18.349Z,96.508789
2019-03-12T01:45:30.149Z,96.405029
2019-03-12T01:45:41.914Z,96.405029
2019-03-12T01:45:53.698Z,96.30127
2019-03-12T01:46:05.503Z,96.30127
2019-03-12T01:46:17.286Z,96.30127
2019-03-12T01:46:29.079Z,96.30127
2019-03-12T01:46:40.856Z,96.343994
2019-03-12T01:46:52.654Z,96.447754
2019-03-12T01:47:04.453Z,96.447754
2019-03-12T01:47:16.255Z,96.447754
2019-03-12T01:47:28.046Z,96.447754
2019-03-12T01:47:39.862Z,96.551514
2019-03-12T01:47:51.637Z,96.551514
2019-03-12T01:48:03.417Z,96.551514
2019-03-12T01:48:15.191Z,96.551514
2019-03-12T01:48:26.994Z,96.551514
2019-03-12T01:48:38.762Z,96.551514
2019-03-12T01:48:50.555Z,96.551514
2019-03-12T01:49:02.363Z,96.551514
2019-03-12T01:49:14.146Z,96.551514
2019-03-12T01:49:25.934Z,96.551514
2019-03-12T01:49:37.695Z,96.551514
2019-03-12T01:49:49.465Z,96.655273
2019-03-12T01:50:01.264Z,96.655273
2019-03-12T01:50:13.020Z,96.655273
2019-03-12T01:50:24.797Z,96.655273
2019-03-12T01:50:36.601Z,96.655273
2019-03-12T01:50:48.399Z,96.655273
2019-03-12T01:51:00.217Z,96.655273
2019-03-12T01:51:12.045Z,96.655273
2019-03-12T01:51:23.797Z,96.655273
2019-03-12T01:51:35.543Z,96.655273
2019-03-12T01:51:47.335Z,96.655273
2019-03-12T01:51:59.109Z,96.655273
2019-03-12T01:52:10.902Z,96.655273
2019-03-12T01:52:22.754Z,96.759033
2019-03-12T01:52:34.546Z,96.759033
2019-03-12T01:52:46.307Z,96.759033
2019-03-12T01:52:58.094Z,96.862793
2019-03-12T01:53:09.882Z,96.862793
2019-03-12T01:53:21.688Z,96.862793
2019-03-12T01:53:33.460Z,96.862793
2019-03-12T01:53:45.280Z,96.862793
2019-03-12T01:53:57.055Z,96.862793
2019-03-12T01:54:08.827Z,96.862793
2019-03-12T01:54:20.627Z,96.862793
2019-03-12T01:54:32.405Z,97.009277
2019-03-12T01:54:44.204Z,96.966553
2019-03-12T01:54:56.012Z,97.070312
2019-03-12T01:55:07.777Z,97.070312
2019-03-12T01:55:19.569Z,97.070312
2019-03-12T01:55:31.361Z,97.119141
2019-03-12T01:55:43.154Z,97.070312
2019-03-12T01:55:54.945Z,97.070312
2019-03-12T01:56:06.747Z,97.119141
2019-03-12T01:56:18.565Z,97.070312
2019-03-12T01:56:30.335Z,97.119141
2019-03-12T01:56:42.111Z,97.119141
2019-03-12T01:56:53.905Z,97.119141
2019-03-12T01:57:05.728Z,97.119141
2019-03-12T01:57:17.557Z,97.119141
2019-03-12T01:57:29.310Z,97.119141
2019-03-12T01:57:41.137Z,97.2229
2019-03-12T01:57:52.912Z,97.2229
2019-03-12T01:58:04.684Z,97.2229
2019-03-12T01:58:17.452Z,97.2229
2019-03-12T01:58:29.241Z,97.2229
2019-03-12T01:58:41.028Z,97.2229
2019-03-12T01:58:52.806Z,97.2229
2019-03-12T01:59:04.606Z,97.2229
2019-03-12T01:59:16.397Z,97.119141
2019-03-12T01:59:28.185Z,97.119141
2019-03-12T01:59:40.022Z,97.119141
2019-03-12T01:59:51.773Z,97.2229
2019-03-12T02:00:03.555Z,97.2229
2019-03-12T02:00:15.370Z,97.2229
2019-03-12T02:00:27.137Z,97.2229
2019-03-12T02:00:38.925Z,97.2229
2019-03-12T02:00:50.711Z,97.2229
2019-03-12T02:01:02.497Z,97.2229
2019-03-12T02:01:14.293Z,97.32666
2019-03-12T02:01:26.054Z,97.32666
2019-03-12T02:01:37.828Z,97.32666
2019-03-12T02:01:49.610Z,97.2229
2019-03-12T02:02:01.409Z,97.2229
2019-03-12T02:02:13.200Z,97.2229
2019-03-12T02:02:24.998Z,97.2229
2019-03-12T02:02:36.819Z,97.2229
2019-03-12T02:02:48.590Z,97.2229
2019-03-12T02:03:00.374Z,97.119141
2019-03-12T02:03:12.164Z,97.119141
2019-03-12T02:03:23.947Z,97.119141
2019-03-12T02:03:35.736Z,97.119141
2019-03-12T02:03:47.527Z,97.119141
2019-03-12T02:03:59.304Z,97.119141
2019-03-12T02:04:11.087Z,97.119141
2019-03-12T02:04:22.882Z,97.119141
2019-03-12T02:04:34.657Z,97.119141
2019-03-12T02:04:46.433Z,97.009277
2019-03-12T02:04:58.216Z,97.009277
2019-03-12T02:05:10.021Z,96.905518
2019-03-12T02:05:21.806Z,96.905518
2019-03-12T02:05:33.596Z,96.905518
2019-03-12T02:05:45.395Z,96.905518
2019-03-12T02:05:57.195Z,96.905518
2019-03-12T02:06:09.023Z,96.905518
2019-03-12T02:06:20.830Z,96.905518
2019-03-12T02:06:32.558Z,96.905518
2019-03-12T02:06:44.341Z,96.905518
2019-03-12T02:06:57.429Z,96.905518
2019-03-12T02:07:07.917Z,96.905518
2019-03-12T02:07:19.756Z,96.905518
2019-03-12T02:07:31.553Z,96.905518
2019-03-12T02:07:43.348Z,96.954346
2019-03-12T02:07:55.103Z,96.905518
2019-03-12T02:08:06.868Z,96.954346
2019-03-12T02:08:18.669Z,96.954346
2019-03-12T02:08:30.434Z,96.954346
2019-03-12T02:08:42.209Z,96.954346
2019-03-12T02:08:53.981Z,96.954346
2019-03-12T02:09:05.773Z,97.058105
2019-03-12T02:09:17.554Z,96.954346
2019-03-12T02:09:29.360Z,97.058105
2019-03-12T02:09:41.142Z,97.058105
2019-03-12T02:09:52.910Z,97.058105
2019-03-12T02:10:04.694Z,97.161865
2019-03-12T02:10:16.503Z,97.161865
2019-03-12T02:10:28.303Z,97.161865
2019-03-12T02:10:40.084Z,97.265625
2019-03-12T02:10:51.856Z,97.265625
2019-03-12T02:11:03.641Z,97.265625
2019-03-12T02:11:15.463Z,97.265625
2019-03-12T02:11:27.204Z,97.369385
2019-03-12T02:11:39.031Z,97.369385
2019-03-12T02:11:50.850Z,97.369385
2019-03-12T02:12:02.635Z,97.369385
2019-03-12T02:12:14.409Z,97.369385
2019-03-12T02:12:26.238Z,97.265625
2019-03-12T02:12:38.055Z,97.265625
2019-03-12T02:12:49.853Z,97.161865
2019-03-12T02:13:01.633Z,97.161865
2019-03-12T02:13:13.410Z,97.161865
2019-03-12T02:13:25.236Z,97.161865
2019-03-12T02:13:37.030Z,97.161865
2019-03-12T02:13:48.819Z,97.161865
2019-03-12T02:14:00.621Z,97.161865
2019-03-12T02:14:12.420Z,97.161865
2019-03-12T02:14:24.218Z,97.161865
2019-03-12T02:14:36.013Z,97.20459
2019-03-12T02:14:47.806Z,97.20459
2019-03-12T02:14:59.584Z,97.20459
2019-03-12T02:15:11.356Z,97.30835
2019-03-12T02:15:23.187Z,97.30835